createdAt,value
2016-02-28T00:00:52.536Z,0
2016-02-28T00:01:52.538Z,0
2016-02-28T00:02:52.572Z,0
2016-02-28T00:03:52.638Z,0
2016-02-28T00:04:52.702Z,0
2016-02-28T00:05:52.721Z,0
2016-02-28T00:06:52.771Z,0
2016-02-28T00:07:52.851Z,0
2016-02-28T00:08:52.885Z,0
2016-02-28T00:09:52.935Z,0
2016-02-28T00:10:52.984Z,0
2016-02-28T00:11:53.050Z,0
2016-02-28T00:12:53.084Z,0
2016-02-28T00:13:53.149Z,0
2016-02-28T00:14:53.198Z,0
2016-02-28T00:15:53.248Z,0
2016-02-28T00:16:53.313Z,0
2016-02-28T00:17:53.347Z,0
2016-02-28T00:18:53.397Z,0
2016-02-28T00:19:53.499Z,0
2016-02-28T00:20:53.486Z,0
2016-02-28T00:21:53.582Z,0
2016-02-28T00:22:53.616Z,0
2016-02-28T00:23:53.650Z,0
2016-02-28T00:24:53.685Z,0
2016-02-28T00:25:53.765Z,0
2016-02-28T00:26:53.799Z,0
2016-02-28T00:27:53.895Z,0
2016-02-28T00:28:53.898Z,0
2016-02-28T00:29:53.947Z,0
2016-02-28T00:30:54.028Z,0
2016-02-28T00:31:54.141Z,0
2016-02-28T00:32:54.112Z,0
2016-02-28T00:33:54.162Z,0
2016-02-28T00:34:54.195Z,0
2016-02-28T00:35:54.261Z,0
2016-02-28T00:36:54.311Z,0
2016-02-28T00:37:54.360Z,0
2016-02-28T00:38:54.410Z,0
2016-02-28T00:39:54.459Z,0
2016-02-28T00:40:54.524Z,0
2016-02-28T00:41:54.605Z,0
2016-02-28T00:42:54.607Z,0
2016-02-28T00:43:54.657Z,0
2016-02-28T00:44:54.722Z,0
2016-02-28T00:45:54.772Z,0
2016-02-28T00:46:54.822Z,0
2016-02-28T00:47:54.902Z,0
2016-02-28T00:48:54.936Z,0
2016-02-28T00:49:54.970Z,0
2016-02-28T00:50:55.020Z,0
2016-02-28T00:51:55.070Z,0
2016-02-28T00:52:55.135Z,0
2016-02-28T00:53:55.168Z,0
2016-02-28T00:54:55.218Z,0
2016-02-28T00:55:55.283Z,0
2016-02-28T00:56:55.333Z,0
2016-02-28T00:57:55.382Z,0
2016-02-28T00:58:55.432Z,0
2016-02-28T00:59:55.512Z,0
2016-02-28T01:00:55.547Z,0
2016-02-28T01:01:55.597Z,0
2016-02-28T01:02:55.631Z,0
2016-02-28T01:03:55.680Z,0
2016-02-28T01:04:55.730Z,0
2016-02-28T01:05:55.779Z,0
2016-02-28T01:06:55.828Z,0
2016-02-28T01:07:55.894Z,0
2016-02-28T01:08:55.927Z,0
2016-02-28T01:09:55.977Z,0
2016-02-28T01:10:56.042Z,0
2016-02-28T01:11:56.092Z,0
2016-02-28T01:12:56.142Z,0
2016-02-28T01:13:56.191Z,0
2016-02-28T01:14:56.225Z,0
2016-02-28T01:15:56.290Z,0
2016-02-28T01:16:56.340Z,0
2016-02-28T01:17:56.390Z,0
2016-02-28T01:18:56.439Z,0
2016-02-28T01:19:56.488Z,0
2016-02-28T01:20:56.523Z,0
2016-02-28T01:21:56.587Z,0
2016-02-28T01:22:55.887Z,0
2016-02-28T01:23:56.718Z,0
2016-02-28T01:24:56.752Z,0
2016-02-28T01:25:56.786Z,0
2016-02-28T01:26:56.835Z,0
2016-02-28T01:27:56.900Z,0
2016-02-28T01:28:56.951Z,0
2016-02-28T01:29:56.984Z,0
2016-02-28T01:30:57.065Z,0
2016-02-28T01:31:57.115Z,0
2016-02-28T01:32:57.164Z,0
2016-02-28T01:33:57.229Z,0
2016-02-28T01:34:57.247Z,0
2016-02-28T01:35:57.313Z,0
2016-02-28T01:36:57.362Z,0
2016-02-28T01:37:57.412Z,0
2016-02-28T01:38:57.477Z,0
2016-02-28T01:39:57.511Z,0
2016-02-28T01:40:57.561Z,0
2016-02-28T01:41:57.594Z,0
2016-02-28T01:42:57.660Z,0
2016-02-28T01:43:57.710Z,0
2016-02-28T01:44:57.790Z,0
2016-02-28T01:45:57.824Z,0
2016-02-28T01:46:57.843Z,0
2016-02-28T01:47:57.923Z,0
2016-02-28T01:48:57.957Z,0
2016-02-28T01:49:58.007Z,0
2016-02-28T01:50:58.072Z,0
2016-02-28T01:51:58.184Z,0
2016-02-28T01:52:58.187Z,0
2016-02-28T01:53:58.205Z,0
2016-02-28T01:54:58.255Z,0
2016-02-28T01:55:58.320Z,0
2016-02-28T01:56:58.370Z,0
2016-02-28T01:57:58.418Z,0
2016-02-28T01:58:58.484Z,0
2016-02-28T01:59:58.549Z,0
2016-02-28T02:00:58.583Z,0
2016-02-28T02:01:58.617Z,0
2016-02-28T02:02:58.667Z,0
2016-02-28T02:03:58.732Z,0
2016-02-28T02:04:58.781Z,0
2016-02-28T02:05:58.831Z,0
2016-02-28T02:06:58.958Z,0
2016-02-28T02:07:58.914Z,0
2016-02-28T02:08:58.964Z,0
2016-02-28T02:09:59.092Z,0
2016-02-28T02:10:59.063Z,0
2016-02-28T02:11:59.128Z,0
2016-02-28T02:12:59.178Z,0
2016-02-28T02:13:59.243Z,0
2016-02-28T02:14:59.308Z,0
2016-02-28T02:15:59.327Z,0
2016-02-28T02:16:59.377Z,0
2016-02-28T02:17:59.441Z,0
2016-02-28T02:18:59.491Z,0
2016-02-28T02:19:59.541Z,0
2016-02-28T02:20:59.591Z,0
2016-02-28T02:21:59.687Z,0
2016-02-28T02:22:59.674Z,0
2016-02-28T02:23:59.754Z,0
2016-02-28T02:24:59.804Z,0
2016-02-28T02:25:59.838Z,0
2016-02-28T02:26:59.887Z,0
2016-02-28T02:27:59.937Z,0
2016-02-28T02:29:00.002Z,0
2016-02-28T02:30:00.037Z,0
2016-02-28T02:31:00.086Z,0
2016-02-28T02:32:00.151Z,0
2016-02-28T02:33:00.200Z,0
2016-02-28T02:34:00.234Z,0
2016-02-28T02:35:00.300Z,0
2016-02-28T02:36:00.365Z,0
2016-02-28T02:37:00.430Z,0
2016-02-28T02:38:00.448Z,0
2016-02-28T02:39:00.513Z,0
2016-02-28T02:40:00.563Z,0
2016-02-28T02:41:00.613Z,0
2016-02-28T02:42:00.647Z,0
2016-02-28T02:43:00.712Z,0
2016-02-28T02:44:00.761Z,0
2016-02-28T02:45:00.811Z,0
2016-02-28T02:46:00.860Z,0
2016-02-28T02:47:00.910Z,0
2016-02-28T02:48:00.944Z,0
2016-02-28T02:49:00.993Z,0
2016-02-28T02:50:01.058Z,0
2016-02-28T02:51:01.108Z,0
2016-02-28T02:52:01.157Z,0
2016-02-28T02:53:01.207Z,0
2016-02-28T02:54:01.273Z,0
2016-02-28T02:55:01.338Z,0
2016-02-28T02:56:01.340Z,0
2016-02-28T02:57:01.406Z,0
2016-02-28T02:58:01.471Z,0
2016-02-28T02:59:01.504Z,0
2016-02-28T03:00:01.554Z,0
2016-02-28T03:01:01.604Z,0
2016-02-28T03:02:01.653Z,0
2016-02-28T03:03:01.734Z,0
2016-02-28T03:04:01.784Z,0
2016-02-28T03:05:01.817Z,0
2016-02-28T03:06:01.867Z,0
2016-02-28T03:07:01.964Z,0
2016-02-28T03:08:01.982Z,0
2016-02-28T03:09:02.064Z,0
2016-02-28T03:10:02.066Z,0
2016-02-28T03:11:02.115Z,0
2016-02-28T03:12:02.180Z,0
2016-02-28T03:13:02.214Z,0
2016-02-28T03:14:02.264Z,0
2016-02-28T03:15:02.329Z,0
2016-02-28T03:16:02.395Z,0
2016-02-28T03:17:02.428Z,0
2016-02-28T03:18:02.478Z,0
2016-02-28T03:19:02.511Z,0
2016-02-28T03:20:02.593Z,0
2016-02-28T03:21:02.642Z,0
2016-02-28T03:22:02.660Z,0
2016-02-28T03:23:02.726Z,0
2016-02-28T03:24:02.791Z,0
2016-02-28T03:25:02.824Z,0
2016-02-28T03:26:02.890Z,0
2016-02-28T03:27:02.955Z,0
2016-02-28T03:28:02.990Z,0
2016-02-28T03:29:03.038Z,0
2016-02-28T03:30:03.104Z,0
2016-02-28T03:31:03.168Z,0
2016-02-28T03:32:03.218Z,0
2016-02-28T03:33:03.268Z,0
2016-02-28T03:34:03.348Z,0
2016-02-28T03:35:03.383Z,0
2016-02-28T03:36:03.432Z,0
2016-02-28T03:37:03.559Z,0
2016-02-28T03:38:03.359Z,0
2016-02-28T03:39:03.581Z,0
2016-02-28T03:40:03.630Z,0
2016-02-28T03:41:03.664Z,0
2016-02-28T03:42:03.714Z,0
2016-02-28T03:43:03.780Z,0
2016-02-28T03:44:03.828Z,0
2016-02-28T03:45:03.926Z,0
2016-02-28T03:46:03.974Z,0
2016-02-28T03:47:03.994Z,0
2016-02-28T03:48:04.028Z,0
2016-02-28T03:49:04.077Z,0
2016-02-28T03:50:04.127Z,0
2016-02-28T03:51:04.177Z,0
2016-02-28T03:52:04.225Z,0
2016-02-28T03:53:04.291Z,0
2016-02-28T03:54:04.341Z,0
2016-02-28T03:55:03.640Z,0
2016-02-28T03:56:04.424Z,0
2016-02-28T03:57:04.488Z,0
2016-02-28T03:58:04.538Z,0
2016-02-28T03:59:04.572Z,0
2016-02-28T04:00:04.637Z,0
2016-02-28T04:01:04.687Z,0
2016-02-28T04:02:04.737Z,0
2016-02-28T04:03:04.786Z,0
2016-02-28T04:04:04.841Z,0
2016-02-28T04:05:04.890Z,0
2016-02-28T04:06:04.956Z,0
2016-02-28T04:07:04.990Z,0
2016-02-28T04:08:05.040Z,0
2016-02-28T04:09:05.103Z,0
2016-02-28T04:10:05.138Z,0
2016-02-28T04:11:05.188Z,0
2016-02-28T04:12:05.237Z,0
2016-02-28T04:13:05.287Z,0
2016-02-28T04:14:05.353Z,0
2016-02-28T04:15:05.417Z,0
2016-02-28T04:16:05.452Z,0
2016-02-28T04:17:05.501Z,0
2016-02-28T04:18:05.550Z,0
2016-02-28T04:19:05.599Z,0
2016-02-28T04:20:05.650Z,0
2016-02-28T04:21:05.699Z,0
2016-02-28T04:22:05.764Z,0
2016-02-28T04:23:05.799Z,0
2016-02-28T04:24:05.879Z,0
2016-02-28T04:25:05.147Z,0
2016-02-28T04:26:05.946Z,0
2016-02-28T04:27:05.996Z,0
2016-02-28T04:28:06.046Z,0
2016-02-28T04:29:06.096Z,0
2016-02-28T04:30:06.160Z,0
2016-02-28T04:31:06.210Z,0
2016-02-28T04:32:06.260Z,0
2016-02-28T04:33:06.293Z,0
2016-02-28T04:34:06.359Z,0
2016-02-28T04:35:06.393Z,0
2016-02-28T04:36:06.458Z,0
2016-02-28T04:37:06.554Z,0
2016-02-28T04:38:06.557Z,0
2016-02-28T04:39:06.606Z,0
2016-02-28T04:40:06.687Z,0
2016-02-28T04:41:06.722Z,0
2016-02-28T04:42:06.756Z,0
2016-02-28T04:43:06.805Z,0
2016-02-28T04:44:06.855Z,0
2016-02-28T04:45:06.748Z,0
2016-02-28T04:46:06.969Z,0
2016-02-28T04:47:07.003Z,0
2016-02-28T04:48:07.116Z,0
2016-02-28T04:49:07.133Z,0
2016-02-28T04:50:07.168Z,0
2016-02-28T04:51:07.233Z,0
2016-02-28T04:52:07.266Z,0
2016-02-28T04:53:07.316Z,0
2016-02-28T04:54:07.366Z,0
2016-02-28T04:55:07.432Z,0
2016-02-28T04:56:07.480Z,0
2016-02-28T04:57:07.515Z,0
2016-02-28T04:58:07.565Z,0
2016-02-28T04:59:07.645Z,0
2016-02-28T05:00:07.663Z,0
2016-02-28T05:01:07.712Z,0
2016-02-28T05:02:07.779Z,0
2016-02-28T05:03:07.828Z,0
2016-02-28T05:04:07.877Z,0
2016-02-28T05:05:07.927Z,0
2016-02-28T05:06:08.023Z,0
2016-02-28T05:07:08.042Z,0
2016-02-28T05:08:08.076Z,0
2016-02-28T05:09:08.125Z,0
2016-02-28T05:10:08.159Z,0
2016-02-28T05:11:08.225Z,0
2016-02-28T05:12:08.321Z,0
2016-02-28T05:13:08.339Z,0
2016-02-28T05:14:08.372Z,0
2016-02-28T05:15:08.423Z,0
2016-02-28T05:16:08.519Z,0
2016-02-28T05:17:08.522Z,0
2016-02-28T05:18:08.571Z,0
2016-02-28T05:19:08.636Z,0
2016-02-28T05:20:08.670Z,0
2016-02-28T05:21:08.736Z,0
2016-02-28T05:22:08.800Z,0
2016-02-28T05:23:08.835Z,0
2016-02-28T05:24:08.885Z,0
2016-02-28T05:25:08.933Z,0
2016-02-28T05:26:08.233Z,0
2016-02-28T05:27:09.032Z,0
2016-02-28T05:28:09.083Z,0
2016-02-28T05:29:09.148Z,0
2016-02-28T05:30:09.197Z,0
2016-02-28T05:31:09.231Z,0
2016-02-28T05:32:09.281Z,0
2016-02-28T05:33:09.330Z,0
2016-02-28T05:34:09.379Z,0
2016-02-28T05:35:09.445Z,0
2016-02-28T05:36:09.510Z,0
2016-02-28T05:37:09.560Z,0
2016-02-28T05:38:09.593Z,0
2016-02-28T05:39:09.612Z,0
2016-02-28T05:40:09.709Z,0
2016-02-28T05:41:09.743Z,0
2016-02-28T05:42:09.792Z,0
2016-02-28T05:43:09.842Z,0
2016-02-28T05:44:09.891Z,0
2016-02-28T05:45:09.941Z,0
2016-02-28T05:46:09.990Z,0
2016-02-28T05:47:10.039Z,0
2016-02-28T05:48:10.089Z,0
2016-02-28T05:49:10.155Z,0
2016-02-28T05:50:10.220Z,0
2016-02-28T05:51:10.222Z,0
2016-02-28T05:52:10.288Z,0
2016-02-28T05:53:10.338Z,0
2016-02-28T05:54:10.386Z,0
2016-02-28T05:55:10.452Z,0
2016-02-28T05:56:10.502Z,0
2016-02-28T05:57:10.551Z,0
2016-02-28T05:58:10.616Z,0
2016-02-28T05:59:10.635Z,0
2016-02-28T06:00:10.716Z,0
2016-02-28T06:01:10.734Z,0
2016-02-28T06:02:10.799Z,0
2016-02-28T06:03:10.895Z,0
2016-02-28T06:04:10.898Z,0
2016-02-28T06:05:10.979Z,0
2016-02-28T06:06:10.997Z,0
2016-02-28T06:07:11.062Z,0
2016-02-28T06:08:11.096Z,0
2016-02-28T06:09:11.162Z,0
2016-02-28T06:10:11.195Z,0
2016-02-28T06:11:11.261Z,0
2016-02-28T06:12:11.295Z,0
2016-02-28T06:13:11.359Z,0
2016-02-28T06:14:11.440Z,0
2016-02-28T06:15:11.474Z,0
2016-02-28T06:16:11.493Z,0
2016-02-28T06:17:11.542Z,0
2016-02-28T06:18:11.608Z,0
2016-02-28T06:19:11.658Z,0
2016-02-28T06:20:11.691Z,0
2016-02-28T06:21:11.819Z,0
2016-02-28T06:22:11.805Z,0
2016-02-28T06:23:11.871Z,0
2016-02-28T06:24:11.905Z,0
2016-02-28T06:25:12.001Z,0
2016-02-28T06:26:12.004Z,0
2016-02-28T06:27:12.054Z,0
2016-02-28T06:28:12.103Z,0
2016-02-28T06:29:12.152Z,0
2016-02-28T06:30:12.233Z,0
2016-02-28T06:31:12.252Z,0
2016-02-28T06:32:12.318Z,0
2016-02-28T06:33:12.351Z,0
2016-02-28T06:34:12.401Z,0
2016-02-28T06:35:12.466Z,0
2016-02-28T06:36:12.516Z,4
2016-02-28T06:37:12.565Z,4
2016-02-28T06:38:12.646Z,0
2016-02-28T06:39:12.664Z,0
2016-02-28T06:40:12.714Z,0
2016-02-28T06:41:12.763Z,0
2016-02-28T06:42:12.812Z,0
2016-02-28T06:43:12.862Z,0
2016-02-28T06:44:12.912Z,0
2016-02-28T06:45:12.978Z,0
2016-02-28T06:46:13.073Z,0
2016-02-28T06:47:13.076Z,0
2016-02-28T06:48:13.110Z,0
2016-02-28T06:49:13.175Z,0
2016-02-28T06:50:13.209Z,4
2016-02-28T06:51:13.274Z,4
2016-02-28T06:52:13.325Z,0
2016-02-28T06:53:13.389Z,0
2016-02-28T06:54:13.408Z,0
2016-02-28T06:55:13.472Z,0
2016-02-28T06:56:13.522Z,0
2016-02-28T06:57:13.588Z,0
2016-02-28T06:58:13.606Z,0
2016-02-28T06:59:13.686Z,0
2016-02-28T07:00:13.721Z,4
2016-02-28T07:01:13.802Z,4
2016-02-28T07:02:13.820Z,4
2016-02-28T07:03:13.713Z,4
2016-02-28T07:04:13.950Z,4
2016-02-28T07:05:13.969Z,0
2016-02-28T07:06:14.034Z,0
2016-02-28T07:07:14.083Z,0
2016-02-28T07:08:14.117Z,0
2016-02-28T07:09:14.182Z,0
2016-02-28T07:10:14.232Z,4
2016-02-28T07:11:14.281Z,4
2016-02-28T07:12:14.315Z,4
2016-02-28T07:13:14.365Z,4
2016-02-28T07:14:14.477Z,4
2016-02-28T07:15:14.464Z,0
2016-02-28T07:16:14.560Z,4
2016-02-28T07:17:14.578Z,0
2016-02-28T07:18:14.612Z,0
2016-02-28T07:19:14.677Z,0
2016-02-28T07:20:14.758Z,0
2016-02-28T07:21:14.777Z,4
2016-02-28T07:22:14.827Z,4
2016-02-28T07:23:14.876Z,4
2016-02-28T07:24:14.925Z,4
2016-02-28T07:25:14.835Z,4
2016-02-28T07:26:15.041Z,4
2016-02-28T07:27:15.075Z,0
2016-02-28T07:28:15.155Z,0
2016-02-28T07:29:15.267Z,0
2016-02-28T07:30:15.223Z,0
2016-02-28T07:31:15.335Z,0
2016-02-28T07:32:15.338Z,4
2016-02-28T07:33:15.371Z,4
2016-02-28T07:34:15.437Z,4
2016-02-28T07:35:15.471Z,4
2016-02-28T07:36:15.552Z,4
2016-02-28T07:37:15.585Z,4
2016-02-28T07:38:15.651Z,4
2016-02-28T07:39:15.685Z,4
2016-02-28T07:40:15.750Z,0
2016-02-28T07:41:15.768Z,4
2016-02-28T07:42:15.848Z,4
2016-02-28T07:43:15.884Z,4
2016-02-28T07:44:15.933Z,4
2016-02-28T07:45:15.982Z,4
2016-02-28T07:46:16.047Z,4
2016-02-28T07:47:16.082Z,468
2016-02-28T07:48:16.138Z,768
2016-02-28T07:49:16.206Z,996
2016-02-28T07:50:16.244Z,1456
2016-02-28T07:51:16.250Z,1848
2016-02-28T07:52:16.287Z,2284
2016-02-28T07:53:16.315Z,2788
2016-02-28T07:54:16.376Z,2744
2016-02-28T07:55:16.423Z,2820
2016-02-28T07:56:16.483Z,2580
2016-02-28T07:57:16.512Z,2308
2016-02-28T07:58:16.592Z,1988
2016-02-28T07:59:16.608Z,1636
2016-02-28T08:00:16.641Z,1408
2016-02-28T08:01:16.689Z,1208
2016-02-28T08:02:16.768Z,1108
2016-02-28T08:03:16.802Z,988
2016-02-28T08:04:16.851Z,912
2016-02-28T08:05:16.899Z,876
2016-02-28T08:06:16.948Z,892
2016-02-28T08:07:17.028Z,856
2016-02-28T08:08:17.064Z,892
2016-02-28T08:09:17.113Z,484
2016-02-28T08:10:17.177Z,888
2016-02-28T08:11:17.242Z,868
2016-02-28T08:12:17.260Z,824
2016-02-28T08:13:17.293Z,780
2016-02-28T08:14:17.359Z,752
2016-02-28T08:15:16.643Z,640
2016-02-28T08:16:17.473Z,652
2016-02-28T08:17:17.492Z,556
2016-02-28T08:18:17.572Z,496
2016-02-28T08:19:16.872Z,544
2016-02-28T08:20:17.671Z,508
2016-02-28T08:21:17.690Z,484
2016-02-28T08:22:17.772Z,444
2016-02-28T08:23:17.836Z,424
2016-02-28T08:24:17.870Z,384
2016-02-28T08:25:17.904Z,352
2016-02-28T08:26:17.953Z,392
2016-02-28T08:27:18.018Z,364
2016-02-28T08:28:18.069Z,336
2016-02-28T08:29:18.149Z,308
2016-02-28T08:30:18.168Z,304
2016-02-28T08:31:18.232Z,320
2016-02-28T08:32:18.251Z,324
2016-02-28T08:33:18.393Z,324
2016-02-28T08:34:18.366Z,320
2016-02-28T08:35:18.432Z,292
2016-02-28T08:36:18.480Z,300
2016-02-28T08:37:18.515Z,280
2016-02-28T08:38:18.595Z,280
2016-02-28T08:39:18.613Z,260
2016-02-28T08:40:18.662Z,252
2016-02-28T08:41:18.728Z,244
2016-02-28T08:42:18.778Z,224
2016-02-28T08:43:18.843Z,224
2016-02-28T08:44:18.876Z,192
2016-02-28T08:45:18.926Z,200
2016-02-28T08:46:18.975Z,208
2016-02-28T08:47:19.042Z,196
2016-02-28T08:48:19.076Z,92
2016-02-28T08:49:19.140Z,168
2016-02-28T08:50:19.175Z,108
2016-02-28T08:51:19.239Z,76
2016-02-28T08:52:19.273Z,324
2016-02-28T08:53:19.322Z,320
2016-02-28T08:54:19.372Z,316
2016-02-28T08:55:19.438Z,312
2016-02-28T08:56:19.472Z,316
2016-02-28T08:57:19.537Z,300
2016-02-28T08:58:19.586Z,284
2016-02-28T08:59:19.636Z,320
2016-02-28T09:00:19.685Z,280
2016-02-28T09:01:19.719Z,272
2016-02-28T09:02:19.770Z,264
2016-02-28T09:03:19.837Z,248
2016-02-28T09:04:19.886Z,240
2016-02-28T09:05:19.940Z,240
2016-02-28T09:06:19.990Z,244
2016-02-28T09:07:20.039Z,252
2016-02-28T09:08:20.073Z,260
2016-02-28T09:09:20.138Z,272
2016-02-28T09:10:20.188Z,284
2016-02-28T09:11:20.222Z,300
2016-02-28T09:12:20.272Z,336
2016-02-28T09:13:20.336Z,356
2016-02-28T09:14:20.386Z,396
2016-02-28T09:15:20.420Z,412
2016-02-28T09:16:20.469Z,420
2016-02-28T09:17:20.519Z,436
2016-02-28T09:18:20.569Z,456
2016-02-28T09:19:20.619Z,452
2016-02-28T09:20:20.668Z,452
2016-02-28T09:21:20.733Z,452
2016-02-28T09:22:20.799Z,456
2016-02-28T09:23:20.816Z,452
2016-02-28T09:24:20.866Z,448
2016-02-28T09:25:20.915Z,444
2016-02-28T09:26:20.982Z,444
2016-02-28T09:27:21.015Z,444
2016-02-28T09:28:21.065Z,444
2016-02-28T09:29:21.115Z,436
2016-02-28T09:30:21.179Z,448
2016-02-28T09:31:21.213Z,456
2016-02-28T09:32:21.262Z,448
2016-02-28T09:33:21.313Z,440
2016-02-28T09:34:21.362Z,408
2016-02-28T09:35:21.395Z,416
2016-02-28T09:36:21.581Z,420
2016-02-28T09:37:21.242Z,408
2016-02-28T09:38:21.372Z,388
2016-02-28T09:39:21.552Z,396
2016-02-28T09:40:21.632Z,400
2016-02-28T09:41:21.697Z,388
2016-02-28T09:42:21.732Z,384
2016-02-28T09:43:21.765Z,396
2016-02-28T09:44:21.815Z,380
2016-02-28T09:45:21.880Z,380
2016-02-28T09:46:21.914Z,292
2016-02-28T09:47:21.979Z,252
2016-02-28T09:48:22.039Z,264
2016-02-28T09:49:22.073Z,272
2016-02-28T09:50:22.122Z,280
2016-02-28T09:51:22.219Z,288
2016-02-28T09:52:22.237Z,280
2016-02-28T09:53:22.145Z,276
2016-02-28T09:54:22.320Z,268
2016-02-28T09:55:22.369Z,252
2016-02-28T09:56:22.419Z,260
2016-02-28T09:57:22.453Z,264
2016-02-28T09:58:22.518Z,268
2016-02-28T09:59:22.787Z,280
2016-02-28T10:00:22.602Z,280
2016-02-28T10:01:22.667Z,288
2016-02-28T10:02:22.722Z,284
2016-02-28T10:03:22.756Z,296
2016-02-28T10:04:22.072Z,296
2016-02-28T10:05:22.855Z,296
2016-02-28T10:06:22.894Z,300
2016-02-28T10:07:22.945Z,300
2016-02-28T10:08:23.058Z,304
2016-02-28T10:09:23.045Z,312
2016-02-28T10:10:23.095Z,312
2016-02-28T10:11:23.145Z,308
2016-02-28T10:12:23.194Z,312
2016-02-28T10:13:23.243Z,316
2016-02-28T10:14:23.293Z,292
2016-02-28T10:15:23.405Z,288
2016-02-28T10:16:23.533Z,280
2016-02-28T10:17:23.425Z,284
2016-02-28T10:18:23.475Z,300
2016-02-28T10:19:23.556Z,300
2016-02-28T10:20:23.637Z,304
2016-02-28T10:21:23.640Z,300
2016-02-28T10:22:23.689Z,288
2016-02-28T10:23:23.739Z,280
2016-02-28T10:24:23.819Z,264
2016-02-28T10:25:23.869Z,264
2016-02-28T10:26:23.871Z,260
2016-02-28T10:27:23.937Z,264
2016-02-28T10:28:24.268Z,260
2016-02-28T10:29:24.036Z,260
2016-02-28T10:30:24.071Z,260
2016-02-28T10:31:24.213Z,264
2016-02-28T10:32:24.169Z,260
2016-02-28T10:33:24.251Z,256
2016-02-28T10:34:24.284Z,252
2016-02-28T10:35:24.334Z,244
2016-02-28T10:36:24.367Z,240
2016-02-28T10:37:24.448Z,248
2016-02-28T10:38:24.482Z,248
2016-02-28T10:39:24.532Z,248
2016-02-28T10:40:24.598Z,244
2016-02-28T10:41:24.710Z,228
2016-02-28T10:42:24.806Z,216
2016-02-28T10:43:24.793Z,192
2016-02-28T10:44:24.873Z,200
2016-02-28T10:45:24.876Z,220
2016-02-28T10:46:24.972Z,216
2016-02-28T10:47:24.975Z,208
2016-02-28T10:48:24.978Z,220
2016-02-28T10:49:25.059Z,212
2016-02-28T10:50:25.093Z,216
2016-02-28T10:51:25.142Z,200
2016-02-28T10:52:25.177Z,212
2016-02-28T10:53:25.288Z,220
2016-02-28T10:54:25.307Z,232
2016-02-28T10:55:25.355Z,240
2016-02-28T10:56:25.391Z,224
2016-02-28T10:57:25.440Z,228
2016-02-28T10:58:25.489Z,232
2016-02-28T10:59:25.538Z,240
2016-02-28T11:00:25.604Z,240
2016-02-28T11:01:25.638Z,236
2016-02-28T11:02:25.688Z,220
2016-02-28T11:03:25.738Z,224
2016-02-28T11:04:25.787Z,220
2016-02-28T11:05:25.852Z,220
2016-02-28T11:06:25.917Z,216
2016-02-28T11:07:25.951Z,212
2016-02-28T11:08:26.001Z,220
2016-02-28T11:09:25.894Z,216
2016-02-28T11:10:26.100Z,212
2016-02-28T11:11:25.993Z,208
2016-02-28T11:12:26.184Z,212
2016-02-28T11:13:26.248Z,212
2016-02-28T11:14:26.298Z,204
2016-02-28T11:15:26.363Z,212
2016-02-28T11:16:26.397Z,204
2016-02-28T11:17:26.462Z,196
2016-02-28T11:18:26.512Z,204
2016-02-28T11:19:26.592Z,200
2016-02-28T11:20:26.689Z,176
2016-02-28T11:21:26.644Z,188
2016-02-28T11:22:26.695Z,180
2016-02-28T11:23:26.761Z,192
2016-02-28T11:24:26.841Z,176
2016-02-28T11:25:26.875Z,172
2016-02-28T11:26:26.924Z,176
2016-02-28T11:27:29.130Z,180
2016-02-28T11:28:29.038Z,180
2016-02-28T11:29:29.230Z,180
2016-02-28T11:30:29.466Z,188
2016-02-28T11:31:28.907Z,176
2016-02-28T11:32:29.784Z,176
2016-02-28T11:33:29.177Z,192
2016-02-28T11:34:29.477Z,208
2016-02-28T11:35:29.526Z,208
2016-02-28T11:36:29.545Z,212
2016-02-28T11:37:29.719Z,204
2016-02-28T11:38:29.113Z,196
2016-02-28T11:39:29.412Z,200
2016-02-28T11:40:30.149Z,196
2016-02-28T11:41:28.558Z,196
2016-02-28T11:42:28.732Z,196
2016-02-28T11:43:29.001Z,188
2016-02-28T11:44:29.395Z,196
2016-02-28T11:45:28.929Z,196
2016-02-28T11:46:29.165Z,192
2016-02-28T11:47:28.980Z,188
2016-02-28T11:48:28.561Z,188
2016-02-28T11:49:28.095Z,184
2016-02-28T11:50:28.114Z,172
2016-02-28T11:51:28.585Z,180
2016-02-28T11:52:28.213Z,172
2016-02-28T11:53:28.294Z,172
2016-02-28T11:54:28.328Z,172
2016-02-28T11:55:28.392Z,168
2016-02-28T11:56:28.427Z,172
2016-02-28T11:57:28.492Z,164
2016-02-28T11:58:28.525Z,156
2016-02-28T11:59:28.607Z,152
2016-02-28T12:00:28.625Z,140
2016-02-28T12:01:28.721Z,144
2016-02-28T12:02:28.740Z,148
2016-02-28T12:03:28.821Z,152
2016-02-28T12:04:28.838Z,156
2016-02-28T12:05:28.888Z,152
2016-02-28T12:06:28.954Z,152
2016-02-28T12:07:29.004Z,152
2016-02-28T12:08:29.052Z,152
2016-02-28T12:09:29.087Z,156
2016-02-28T12:10:29.151Z,136
2016-02-28T12:11:29.218Z,156
2016-02-28T12:12:29.282Z,156
2016-02-28T12:13:29.301Z,152
2016-02-28T12:14:29.381Z,156
2016-02-28T12:15:29.400Z,152
2016-02-28T12:16:29.481Z,156
2016-02-28T12:17:29.514Z,152
2016-02-28T12:18:29.595Z,156
2016-02-28T12:19:29.614Z,160
2016-02-28T12:20:29.694Z,156
2016-02-28T12:21:29.712Z,160
2016-02-28T12:22:29.919Z,156
2016-02-28T12:23:29.828Z,152
2016-02-28T12:24:29.878Z,144
2016-02-28T12:25:29.927Z,152
2016-02-28T12:26:29.992Z,152
2016-02-28T12:27:30.025Z,152
2016-02-28T12:28:30.075Z,148
2016-02-28T12:29:30.125Z,152
2016-02-28T12:30:30.191Z,152
2016-02-28T12:31:30.239Z,152
2016-02-28T12:32:30.289Z,148
2016-02-28T12:33:30.323Z,144
2016-02-28T12:34:30.372Z,140
2016-02-28T12:35:30.469Z,140
2016-02-28T12:36:30.519Z,132
2016-02-28T12:37:30.584Z,136
2016-02-28T12:38:30.618Z,136
2016-02-28T12:39:30.652Z,136
2016-02-28T12:40:30.545Z,128
2016-02-28T12:41:30.751Z,128
2016-02-28T12:42:30.801Z,124
2016-02-28T12:43:30.865Z,124
2016-02-28T12:44:30.946Z,124
2016-02-28T12:45:30.948Z,120
2016-02-28T12:46:30.998Z,120
2016-02-28T12:47:31.142Z,116
2016-02-28T12:48:31.129Z,116
2016-02-28T12:49:31.163Z,112
2016-02-28T12:50:31.228Z,112
2016-02-28T12:51:31.262Z,112
2016-02-28T12:52:31.328Z,112
2016-02-28T12:53:31.378Z,112
2016-02-28T12:54:31.551Z,108
2016-02-28T12:55:31.538Z,108
2016-02-28T12:56:30.431Z,112
2016-02-28T12:57:31.872Z,112
2016-02-28T12:58:31.750Z,108
2016-02-28T12:59:31.706Z,108
2016-02-28T13:00:31.724Z,96
2016-02-28T13:01:31.789Z,104
2016-02-28T13:02:31.822Z,100
2016-02-28T13:03:31.872Z,104
2016-02-28T13:04:31.953Z,108
2016-02-28T13:05:32.003Z,108
2016-02-28T13:06:32.039Z,108
2016-02-28T13:07:32.079Z,108
2016-02-28T13:08:32.143Z,104
2016-02-28T13:09:32.193Z,108
2016-02-28T13:10:32.430Z,108
2016-02-28T13:11:32.308Z,108
2016-02-28T13:12:32.373Z,100
2016-02-28T13:13:32.423Z,100
2016-02-28T13:14:32.456Z,100
2016-02-28T13:15:32.521Z,100
2016-02-28T13:16:32.557Z,108
2016-02-28T13:17:32.590Z,104
2016-02-28T13:18:32.670Z,100
2016-02-28T13:19:32.720Z,96
2016-02-28T13:20:32.769Z,104
2016-02-28T13:21:32.804Z,104
2016-02-28T13:22:35.073Z,104
2016-02-28T13:23:32.918Z,104
2016-02-28T13:24:32.953Z,108
2016-02-28T13:25:33.002Z,108
2016-02-28T13:26:33.068Z,104
2016-02-28T13:27:32.976Z,104
2016-02-28T13:28:33.181Z,104
2016-02-28T13:29:33.216Z,104
2016-02-28T13:30:33.265Z,104
2016-02-28T13:31:33.330Z,104
2016-02-28T13:32:33.411Z,100
2016-02-28T13:33:33.430Z,104
2016-02-28T13:34:33.480Z,100
2016-02-28T13:35:33.560Z,104
2016-02-28T13:36:33.594Z,96
2016-02-28T13:37:33.644Z,100
2016-02-28T13:38:33.678Z,100
2016-02-28T13:39:33.743Z,100
2016-02-28T13:40:33.824Z,100
2016-02-28T13:41:33.841Z,100
2016-02-28T13:42:33.923Z,100
2016-02-28T13:43:33.957Z,100
2016-02-28T13:44:34.007Z,100
2016-02-28T13:45:34.071Z,100
2016-02-28T13:46:34.105Z,100
2016-02-28T13:47:34.201Z,100
2016-02-28T13:48:34.220Z,100
2016-02-28T13:49:34.254Z,100
2016-02-28T13:50:34.195Z,100
2016-02-28T13:51:34.354Z,92
2016-02-28T13:52:34.418Z,88
2016-02-28T13:53:34.468Z,88
2016-02-28T13:54:34.517Z,88
2016-02-28T13:55:34.551Z,88
2016-02-28T13:56:34.617Z,84
2016-02-28T13:57:34.682Z,84
2016-02-28T13:58:34.731Z,80
2016-02-28T13:59:34.781Z,80
2016-02-28T14:00:34.830Z,80
2016-02-28T14:01:34.911Z,80
2016-02-28T14:02:34.930Z,76
2016-02-28T14:03:34.980Z,80
2016-02-28T14:04:35.028Z,76
2016-02-28T14:05:35.094Z,80
2016-02-28T14:06:35.127Z,88
2016-02-28T14:07:35.194Z,80
2016-02-28T14:08:35.243Z,84
2016-02-28T14:09:35.292Z,88
2016-02-28T14:10:35.341Z,88
2016-02-28T14:11:35.391Z,56
2016-02-28T14:12:35.457Z,88
2016-02-28T14:13:35.506Z,84
2016-02-28T14:14:35.540Z,80
2016-02-28T14:15:35.590Z,84
2016-02-28T14:16:35.654Z,84
2016-02-28T14:17:35.705Z,80
2016-02-28T14:18:35.785Z,80
2016-02-28T14:19:35.648Z,80